Time;durP1;ratioP1;P1;durP2;ratioP2;P2;SDS_P1;SDS_P2;PMS_P1;PMS_P2;Temp;Humidity;BMP_temperature;BMP_pressure;BME280_temperature;BME280_humidity;BME280_pressure;Samples;Min_cycle;Max_cycle;Signal;HPM_P1;HPM_P2
2022/02/28 00:02:12;;;;;;;;;;;;;;;0.02;55.04;97694.50;5005077;28;19968;-75
2022/02/28 00:04:38;;;;;;;;;;;;;;;0.02;54.03;97685.94;5003393;28;19958;-74
2022/02/28 00:07:04;;;;;;;;;;;;;;;0.01;54.48;97690.28;5003468;28;19965;-75
2022/02/28 00:09:30;;;;;;;;;;;;;;;0.00;54.58;97680.94;5011013;28;20004;-74
2022/02/28 00:11:56;;;;;;;;;;;;;;;-0.02;54.15;97686.19;5004102;28;19978;-74
2022/02/28 00:14:22;;;;;;;;;;;;;;;-0.05;54.45;97683.84;5002717;28;19962;-73
2022/02/28 00:16:48;;;;;;;;;;;;;;;-0.09;54.40;97685.03;4986775;28;20293;-74
2022/02/28 00:19:14;;;;;;;;;;;;;;;-0.13;53.79;97680.22;5011457;28;19951;-74
2022/02/28 00:21:40;;;;;;;;;;;;;;;-0.18;54.81;97678.03;5003370;28;19955;-74
2022/02/28 00:24:06;;;;;;;;;;;;;;;-0.23;54.83;97678.38;5004552;28;19952;-74
2022/02/28 00:26:31;;;;;;;;;;;;;;;-0.27;54.53;97686.47;4993921;28;19958;-74
2022/02/28 00:28:57;;;;;;;;;;;;;;;-0.34;55.19;97691.28;5003947;28;19978;-74
2022/02/28 00:31:23;;;;;;;;;;;;;;;-0.35;54.92;97687.06;5001514;28;20486;-74
2022/02/28 00:33:49;;;;;;;;;;;;;;;-0.39;55.00;97685.66;5010056;28;19972;-74
2022/02/28 00:36:15;;;;;;;;;;;;;;;-0.42;56.49;97686.72;5005394;28;20460;-75
2022/02/28 00:38:41;;;;;;;;;;;;;;;-0.44;55.59;97680.88;4982461;28;19972;-74
2022/02/28 00:41:07;;;;;;;;;;;;;;;-0.47;55.87;97682.84;5007363;28;19953;-73
2022/02/28 00:43:34;;;;;;;;;;;;;;;-0.49;56.00;97685.53;4990761;28;19983;-74
2022/02/28 00:46:00;;;;;;;;;;;;;;;-0.52;55.64;97678.06;4995460;28;19957;-74
2022/02/28 00:48:26;;;;;;;;;;;;;;;-0.54;55.42;97685.09;4995231;28;19947;-74
2022/02/28 00:50:52;;;;;;;;;;;;;;;-0.58;55.75;97678.53;4994788;28;20315;-74
2022/02/28 00:53:19;;;;;;;;;;;;;;;-0.62;55.97;97675.34;4995156;28;19960;-74
2022/02/28 00:55:44;;;;;;;;;;;;;;;-0.60;56.33;97680.41;4994636;28;20406;-74
2022/02/28 00:58:10;;;;;;;;;;;;;;;-0.60;56.50;97674.44;4995354;28;19955;-74
2022/02/28 01:00:37;;;;;;;;;;;;;;;-0.58;55.71;97675.94;4995158;28;20410;-74
2022/02/28 01:03:03;;;;;;;;;;;;;;;-0.60;56.01;97680.41;4995078;28;19951;-74
2022/02/28 01:05:29;;;;;;;;;;;;;;;-0.60;56.25;97672.66;4977621;28;20322;-74
2022/02/28 01:07:55;;;;;;;;;;;;;;;-0.60;56.30;97672.66;4995639;28;19955;-74
2022/02/28 01:10:21;;;;;;;;;;;;;;;-0.60;56.75;97674.44;4994798;28;20003;-74
2022/02/28 01:12:48;;;;;;;;;;;;;;;-0.61;56.14;97671.00;4994855;28;19951;-74
2022/02/28 01:15:15;;;;;;;;;;;;;;;-0.61;56.00;97671.00;4994777;28;19971;-74
2022/02/28 01:17:42;;;;;;;;;;;;;;;-0.59;56.61;97679.44;4995030;28;19972;-74
2022/02/28 01:20:09;;;;;;;;;;;;;;;-0.59;57.02;97674.28;4994796;28;19964;-74
2022/02/28 01:22:34;;;;;;;;;;;;;;;-0.58;56.87;97675.94;4977998;28;19961;-74
2022/02/28 01:25:00;;;;;;;;;;;;;;;-0.59;56.62;97671.72;4977304;28;19990;-74
2022/02/28 01:27:26;;;;;;;;;;;;;;;-0.59;56.73;97670.91;4994441;28;19958;-74
2022/02/28 01:29:52;;;;;;;;;;;;;;;-0.62;56.85;97667.63;4994740;28;19957;-74
2022/02/28 01:32:18;;;;;;;;;;;;;;;-0.62;56.20;97670.19;4994768;28;19976;-74
2022/02/28 01:34:44;;;;;;;;;;;;;;;-0.62;56.29;97671.97;4994465;28;19953;-74
2022/02/28 01:37:10;;;;;;;;;;;;;;;-0.63;56.49;97663.44;4994448;28;19958;-74
2022/02/28 01:39:36;;;;;;;;;;;;;;;-0.62;56.80;97670.19;4994607;28;19955;-74
2022/02/28 01:42:02;;;;;;;;;;;;;;;-0.62;57.30;97670.19;4994324;28;19961;-74
2022/02/28 01:44:28;;;;;;;;;;;;;;;-0.63;56.47;97663.44;5007028;28;20446;-74
2022/02/28 01:46:56;;;;;;;;;;;;;;;-0.66;56.58;97661.06;5001639;28;19977;-74
2022/02/28 01:49:22;;;;;;;;;;;;;;;-0.66;56.43;97660.25;4999871;28;20272;-74
2022/02/28 01:51:48;;;;;;;;;;;;;;;-0.69;57.29;97663.91;5008788;28;20017;-74
2022/02/28 01:54:14;;;;;;;;;;;;;;;-0.70;57.14;97662.25;5007080;28;19957;-74
2022/02/28 01:56:40;;;;;;;;;;;;;;;-0.70;57.87;97664.00;5000093;28;20044;-74
2022/02/28 01:59:06;;;;;;;;;;;;;;;-0.70;57.63;97661.44;5002409;28;19959;-74
2022/02/28 02:01:32;;;;;;;;;;;;;;;-0.71;56.88;97654.66;4989449;28;20455;-74
2022/02/28 02:03:58;;;;;;;;;;;;;;;-0.70;57.28;97662.25;5006998;28;19964;-74
2022/02/28 02:06:23;;;;;;;;;;;;;;;-0.73;57.11;97651.38;5003514;28;19961;-74
2022/02/28 02:08:50;;;;;;;;;;;;;;;-0.76;56.76;97660.13;5004979;28;19999;-74
2022/02/28 02:11:18;;;;;;;;;;;;;;;-0.77;56.91;97658.50;5013784;28;19963;-74
2022/02/28 02:13:44;;;;;;;;;;;;;;;-0.84;57.12;97653.00;5011341;28;19951;-74
2022/02/28 02:16:10;;;;;;;;;;;;;;;-0.88;57.60;97650.78;5011015;28;19960;-74
2022/02/28 02:18:36;;;;;;;;;;;;;;;-0.91;57.92;97656.16;5009629;28;19966;-74
2022/02/28 02:21:02;;;;;;;;;;;;;;;-0.94;57.57;97653.81;5009345;28;19952;-74
2022/02/28 02:23:29;;;;;;;;;;;;;;;-0.94;58.39;97656.38;5009620;28;19946;-74
2022/02/28 02:25:56;;;;;;;;;;;;;;;-0.96;57.47;97650.53;4992594;28;20333;-74
2022/02/28 02:28:21;;;;;;;;;;;;;;;-1.01;57.56;97658.59;5010182;28;19957;-74
2022/02/28 02:30:51;;;;;;;;;;;;;;;-1.03;58.27;97656.16;5009407;28;19958;-74
2022/02/28 02:33:17;;;;;;;;;;;;;;;-1.02;58.32;97662.91;5009545;28;19953;-74
2022/02/28 02:35:45;;;;;;;;;;;;;;;-1.05;57.95;97663.16;5009398;28;19952;-74
2022/02/28 02:38:11;;;;;;;;;;;;;;;-1.03;58.58;97670.75;5011241;28;19961;-73
2022/02/28 02:40:37;;;;;;;;;;;;;;;-1.03;58.46;97658.72;5013125;28;19957;-74
2022/02/28 02:43:02;;;;;;;;;;;;;;;-1.00;58.25;97662.00;5006058;28;20287;-74
2022/02/28 02:45:29;;;;;;;;;;;;;;;-1.00;58.27;97667.97;4992810;28;19965;-74
2022/02/28 02:47:54;;;;;;;;;;;;;;;-1.00;58.42;97667.97;5011395;28;19958;-74
2022/02/28 02:50:20;;;;;;;;;;;;;;;-0.99;58.29;97663.63;4993252;28;19957;-74
2022/02/28 02:52:46;;;;;;;;;;;;;;;-1.01;58.48;97653.44;5013719;28;19979;-74
2022/02/28 02:55:12;;;;;;;;;;;;;;;-1.00;57.87;97659.44;5004842;28;19988;-74
2022/02/28 02:57:38;;;;;;;;;;;;;;;-1.03;58.36;97657.88;5009963;28;19989;-74
2022/02/28 03:00:06;;;;;;;;;;;;;;;-1.06;58.23;97661.50;5009260;28;19956;-74
2022/02/28 03:02:32;;;;;;;;;;;;;;;-1.10;57.72;97657.53;5014030;28;19985;-74
2022/02/28 03:04:58;;;;;;;;;;;;;;;-1.12;58.63;97666.31;5010405;28;19956;-74
2022/02/28 03:07:24;;;;;;;;;;;;;;;-1.15;59.28;97657.06;5008996;28;19962;-74
2022/02/28 03:09:50;;;;;;;;;;;;;;;-1.13;58.92;97656.94;5009184;28;19962;-74
2022/02/28 03:12:16;;;;;;;;;;;;;;;-1.14;59.00;97661.25;5013876;28;19970;-74
2022/02/28 03:14:42;;;;;;;;;;;;;;;-1.15;60.02;97659.63;5007293;28;20008;-74
2022/02/28 03:17:08;;;;;;;;;;;;;;;-1.16;58.95;97659.75;5008444;28;19961;-74
2022/02/28 03:19:34;;;;;;;;;;;;;;;-1.17;59.17;97656.34;5013125;28;20415;-74
2022/02/28 03:22:00;;;;;;;;;;;;;;;-1.15;59.15;97659.63;5001503;28;20028;-74
2022/02/28 03:24:26;;;;;;;;;;;;;;;-1.17;59.70;97664.06;5007377;28;19959;-74
2022/02/28 03:26:52;;;;;;;;;;;;;;;-1.20;59.40;97661.72;5005661;28;20330;-74
2022/02/28 03:29:18;;;;;;;;;;;;;;;-1.21;58.96;97660.09;5005418;28;20038;-74
2022/02/28 03:31:43;;;;;;;;;;;;;;;-1.22;59.39;97653.28;4987980;28;19967;-74
2022/02/28 03:34:09;;;;;;;;;;;;;;;-1.20;59.58;97654.00;5009229;28;20278;-74
2022/02/28 03:36:35;;;;;;;;;;;;;;;-1.20;59.07;97653.19;5005877;28;20410;-74
2022/02/28 03:39:01;;;;;;;;;;;;;;;-1.21;59.29;97660.09;5005967;28;20516;-73
2022/02/28 03:41:27;;;;;;;;;;;;;;;-1.20;59.50;97658.31;5007950;28;19956;-74
2022/02/28 03:43:53;;;;;;;;;;;;;;;-1.22;59.96;97661.00;4987656;28;20039;-74
2022/02/28 03:46:19;;;;;;;;;;;;;;;-1.20;59.67;97656.56;4989110;28;20035;-74
2022/02/28 03:48:44;;;;;;;;;;;;;;;-1.19;59.93;97662.56;5002312;28;20000;-74
2022/02/28 03:51:11;;;;;;;;;;;;;;;-1.21;60.06;97657.50;5009666;28;19972;-74
2022/02/28 03:53:37;;;;;;;;;;;;;;;-1.19;59.99;97659.97;5007228;28;20330;-74
2022/02/28 03:56:02;;;;;;;;;;;;;;;-1.17;60.05;97663.25;5006976;28;19957;-73
2022/02/28 03:58:28;;;;;;;;;;;;;;;-1.17;60.13;97666.66;5006964;28;19959;-74
2022/02/28 04:00:54;;;;;;;;;;;;;;;-1.18;59.99;97659.84;5000209;28;19963;-74
2022/02/28 04:03:22;;;;;;;;;;;;;;;-1.18;59.60;97657.28;5012371;28;20007;-73
2022/02/28 04:05:48;;;;;;;;;;;;;;;-1.18;59.69;97659.03;5008380;28;20419;-74
2022/02/28 04:08:15;;;;;;;;;;;;;;;-1.22;59.24;97658.44;5006038;28;19975;-73
2022/02/28 04:10:41;;;;;;;;;;;;;;;-1.24;59.79;97663.72;5000504;28;19960;-74
2022/02/28 04:13:07;;;;;;;;;;;;;;;-1.29;59.07;97660.66;4988314;28;19969;-74
2022/02/28 04:15:33;;;;;;;;;;;;;;;-1.31;60.08;97659.13;4985467;28;19970;-74
2022/02/28 04:17:58;;;;;;;;;;;;;;;-1.34;59.85;97657.59;4985551;28;19959;-74
2022/02/28 04:20:25;;;;;;;;;;;;;;;-1.35;59.80;97655.13;5009336;28;19967;-74
2022/02/28 04:22:51;;;;;;;;;;;;;;;-1.36;60.23;97662.03;4975197;28;20324;-73
2022/02/28 04:25:17;;;;;;;;;;;;;;;-1.37;60.10;97662.16;5002497;28;19987;-73
2022/02/28 04:27:43;;;;;;;;;;;;;;;-1.39;59.49;97666.59;5005854;28;20411;-74
2022/02/28 04:30:09;;;;;;;;;;;;;;;-1.42;59.72;97666.81;5004147;28;19958;-73
2022/02/28 04:32:35;;;;;;;;;;;;;;;-1.47;59.86;97665.41;5006484;28;20074;-74
2022/02/28 04:35:00;;;;;;;;;;;;;;;-1.49;60.18;97662.13;5008693;28;19966;-74
2022/02/28 04:37:26;;;;;;;;;;;;;;;-1.49;59.77;97674.16;5002237;28;19999;-73
2022/02/28 04:39:52;;;;;;;;;;;;;;;-1.52;60.05;97672.63;5003417;28;19957;-74
2022/02/28 04:42:18;;;;;;;;;;;;;;;-1.53;60.46;97678.72;5009563;28;20744;-73
2022/02/28 04:44:44;;;;;;;;;;;;;;;-1.55;60.29;97683.16;4999979;28;20013;-73
2022/02/28 04:47:10;;;;;;;;;;;;;;;-1.58;59.85;97672.25;5011875;28;19965;-73
2022/02/28 04:49:36;;;;;;;;;;;;;;;-1.61;60.49;97672.50;5003612;28;19987;-73
2022/02/28 04:52:02;;;;;;;;;;;;;;;-1.66;60.96;97678.78;4999009;28;20438;-74
2022/02/28 04:54:28;;;;;;;;;;;;;;;-1.70;60.06;97679.94;4993702;28;19953;-74
2022/02/28 04:56:53;;;;;;;;;;;;;;;-1.72;60.24;97683.53;5005982;28;20002;-73
2022/02/28 04:59:19;;;;;;;;;;;;;;;-1.74;60.54;97677.69;5003593;28;19955;-73
2022/02/28 05:01:45;;;;;;;;;;;;;;;-1.76;60.42;97689.84;5001560;28;19961;-74
2022/02/28 05:04:11;;;;;;;;;;;;;;;-1.78;60.67;97686.56;5004867;28;19956;-73
2022/02/28 05:06:37;;;;;;;;;;;;;;;-1.82;60.96;97685.97;5009510;28;20002;-73
2022/02/28 05:09:03;;;;;;;;;;;;;;;-1.91;60.37;97686.59;4988009;28;19957;-74
2022/02/28 05:11:28;;;;;;;;;;;;;;;-1.97;60.80;97679.34;5007717;28;19963;-73
2022/02/28 05:13:54;;;;;;;;;;;;;;;-2.06;59.58;97691.91;5006492;28;19965;-73
2022/02/28 05:16:20;;;;;;;;;;;;;;;-2.21;61.86;97690.41;4999997;28;19963;-73
2022/02/28 05:18:46;;;;;;;;;;;;;;;-2.22;61.94;97690.53;5004396;28;19990;-73
2022/02/28 05:21:14;;;;;;;;;;;;;;;-2.23;61.49;97694.81;5007034;28;20014;-73
2022/02/28 05:23:39;;;;;;;;;;;;;;;-2.27;61.11;97696.81;5005193;28;19956;-73
2022/02/28 05:26:05;;;;;;;;;;;;;;;-2.32;61.78;97692.91;5005060;28;20040;-73
2022/02/28 05:28:31;;;;;;;;;;;;;;;-2.35;62.06;97690.53;4998519;28;20423;-73
2022/02/28 05:30:57;;;;;;;;;;;;;;;-2.36;61.38;97697.44;5007650;28;19989;-73
2022/02/28 05:33:23;;;;;;;;;;;;;;;-2.36;62.04;97699.19;5005540;28;20012;-73
2022/02/28 05:35:49;;;;;;;;;;;;;;;-2.34;62.24;97700.72;5002927;28;20427;-73
2022/02/28 05:38:15;;;;;;;;;;;;;;;-2.32;62.37;97704.00;5005002;28;19957;-74
2022/02/28 05:40:41;;;;;;;;;;;;;;;-2.30;61.67;97706.47;5004348;28;19962;-73
2022/02/28 05:43:07;;;;;;;;;;;;;;;-2.31;61.95;97700.50;5010679;28;19961;-73
2022/02/28 05:45:35;;;;;;;;;;;;;;;-2.31;62.46;97705.66;5005090;28;19955;-73
2022/02/28 05:48:04;;;;;;;;;;;;;;;-2.33;61.96;97704.09;5003604;28;20409;-73
2022/02/28 05:50:30;;;;;;;;;;;;;;;-2.35;62.31;97706.78;5009549;28;20427;-73
2022/02/28 05:52:56;;;;;;;;;;;;;;;-2.36;62.21;97696.59;5001088;28;19979;-73
2022/02/28 05:55:22;;;;;;;;;;;;;;;-2.39;62.25;97704.50;5002200;28;19955;-73
2022/02/28 05:57:48;;;;;;;;;;;;;;;-2.39;62.58;97707.09;4987403;28;19950;-73
2022/02/28 06:00:14;;;;;;;;;;;;;;;-2.40;62.40;97713.97;5006982;28;19969;-73
2022/02/28 06:02:40;;;;;;;;;;;;;;;-2.40;62.50;97711.41;5001530;28;20058;-73
2022/02/28 06:05:07;;;;;;;;;;;;;;;-2.40;62.24;97710.59;4999421;28;19965;-73
2022/02/28 06:07:33;;;;;;;;;;;;;;;-2.41;62.49;97724.38;4989792;28;20431;-73
2022/02/28 06:09:59;;;;;;;;;;;;;;;-2.42;62.72;97720.97;5008320;28;19956;-74
2022/02/28 06:12:24;;;;;;;;;;;;;;;-2.42;62.51;97720.16;5002524;28;20441;-73
2022/02/28 06:14:50;;;;;;;;;;;;;;;-2.41;62.23;97730.34;5004526;28;19958;-74
2022/02/28 06:17:16;;;;;;;;;;;;;;;-2.44;62.32;97717.69;5003922;28;19952;-73
2022/02/28 06:19:42;;;;;;;;;;;;;;;-2.44;61.94;97725.38;5000675;28;19957;-73
2022/02/28 06:22:08;;;;;;;;;;;;;;;-2.45;62.00;97718.63;5007110;28;20010;-73
2022/02/28 06:24:34;;;;;;;;;;;;;;;-2.44;62.28;97730.53;5003692;28;19945;-73
2022/02/28 06:27:00;;;;;;;;;;;;;;;-2.42;62.35;97720.16;4999740;28;19948;-74
2022/02/28 06:29:26;;;;;;;;;;;;;;;-2.41;62.08;97729.50;5002772;28;19962;-73
2022/02/28 06:31:51;;;;;;;;;;;;;;;-2.40;62.20;97723.44;5005898;28;19964;-73
2022/02/28 06:34:17;;;;;;;;;;;;;;;-2.38;62.33;97721.59;5003223;28;20380;-73
2022/02/28 06:36:43;;;;;;;;;;;;;;;-2.37;62.14;97726.63;4998809;28;19982;-73
2022/02/28 06:39:09;;;;;;;;;;;;;;;-2.37;62.21;97725.78;5005038;28;19982;-73
2022/02/28 06:41:35;;;;;;;;;;;;;;;-2.35;62.44;97729.91;5005727;28;19942;-73
2022/02/28 06:44:01;;;;;;;;;;;;;;;-1.92;61.53;97732.06;4997671;28;19975;-73
2022/02/28 06:46:27;;;;;;;;;;;;;;;-1.07;60.62;97729.41;5002115;28;19955;-73
2022/02/28 06:48:53;;;;;;;;;;;;;;;-0.13;58.98;97726.66;5000962;28;20272;-73
2022/02/28 06:51:19;;;;;;;;;;;;;;;0.74;57.29;97721.50;5006056;28;19947;-73
2022/02/28 06:53:45;;;;;;;;;;;;;;;1.54;55.71;97720.88;5007123;28;19975;-73
2022/02/28 06:56:11;;;;;;;;;;;;;;;2.23;54.17;97722.72;4986131;28;20036;-74
2022/02/28 06:58:38;;;;;;;;;;;;;;;2.87;53.01;97728.34;5005981;28;20052;-74
2022/02/28 07:01:06;;;;;;;;;;;;;;;3.42;52.09;97714.72;5014219;28;19959;-74
2022/02/28 07:03:32;;;;;;;;;;;;;;;3.88;51.24;97723.44;4990693;28;19963;-75
2022/02/28 07:05:58;;;;;;;;;;;;;;;4.24;50.53;97719.16;5004521;28;19945;-74
2022/02/28 07:08:25;;;;;;;;;;;;;;;4.52;49.41;97721.69;5007449;28;19970;-74
2022/02/28 07:10:51;;;;;;;;;;;;;;;4.82;48.63;97719.69;5004065;28;19952;-75
2022/02/28 07:13:17;;;;;;;;;;;;;;;5.17;48.21;97723.22;5007601;28;19970;-74
2022/02/28 07:15:44;;;;;;;;;;;;;;;5.44;47.44;97712.66;5006904;28;20397;-75
2022/02/28 07:18:10;;;;;;;;;;;;;;;5.73;47.07;97708.06;5006250;28;19953;-74
2022/02/28 07:20:36;;;;;;;;;;;;;;;6.01;46.11;97713.91;5003616;28;20295;-75
2022/02/28 07:23:02;;;;;;;;;;;;;;;6.28;45.45;97716.28;5003594;28;19954;-74
2022/02/28 07:25:28;;;;;;;;;;;;;;;6.54;45.61;97719.75;5006439;28;19951;-74
2022/02/28 07:27:54;;;;;;;;;;;;;;;6.74;45.46;97718.47;5011607;28;20332;-75
2022/02/28 07:30:20;;;;;;;;;;;;;;;6.86;46.12;97717.16;4987642;28;19967;-75
2022/02/28 07:32:46;;;;;;;;;;;;;;;6.95;45.17;97720.59;5006155;28;19970;-75
2022/02/28 07:35:12;;;;;;;;;;;;;;;7.05;44.92;97726.44;5006101;28;19983;-75
2022/02/28 07:37:38;;;;;;;;;;;;;;;7.15;44.14;97725.47;5008057;28;19954;-76
2022/02/28 07:40:04;;;;;;;;;;;;;;;7.29;44.17;97728.22;5006468;28;19949;-75
2022/02/28 07:42:30;;;;;;;;;;;;;;;7.43;42.97;97716.31;5010401;28;19964;-75
2022/02/28 07:44:56;;;;;;;;;;;;;;;7.51;42.74;97718.06;5014633;28;20408;-75
2022/02/28 07:47:22;;;;;;;;;;;;;;;7.53;41.33;97716.13;5005332;28;19960;-77
2022/02/28 07:49:48;;;;;;;;;;;;;;;7.59;40.67;97714.63;5005622;28;19960;-75
2022/02/28 07:52:14;;;;;;;;;;;;;;;7.53;41.32;97719.53;5005309;28;19974;-75
2022/02/28 07:54:40;;;;;;;;;;;;;;;7.38;40.90;97718.59;5003337;28;20354;-75
2022/02/28 07:57:06;;;;;;;;;;;;;;;7.25;41.93;97721.72;5011257;28;20072;-75
2022/02/28 07:59:32;;;;;;;;;;;;;;;7.26;42.45;97725.94;5001402;28;19955;-75
2022/02/28 08:01:58;;;;;;;;;;;;;;;7.12;42.52;97731.84;5008000;28;20424;-75
2022/02/28 08:04:23;;;;;;;;;;;;;;;7.13;43.42;97727.44;5008507;28;19953;-75
2022/02/28 08:06:49;;;;;;;;;;;;;;;7.16;43.51;97727.09;5003518;28;19963;-74
2022/02/28 08:09:16;;;;;;;;;;;;;;;7.20;43.71;97721.41;5005305;28;20367;-75
2022/02/28 08:11:42;;;;;;;;;;;;;;;7.41;44.03;97722.66;4994378;28;19980;-75
2022/02/28 08:14:08;;;;;;;;;;;;;;;7.53;42.16;97719.53;5006511;28;19967;-75
2022/02/28 08:16:34;;;;;;;;;;;;;;;7.63;42.13;97723.75;5007953;28;20010;-76
2022/02/28 08:19:00;;;;;;;;;;;;;;;7.78;43.36;97721.28;5002528;28;20627;-75
2022/02/28 08:21:26;;;;;;;;;;;;;;;7.85;42.68;97719.59;4986547;28;20058;-78
2022/02/28 08:23:51;;;;;;;;;;;;;;;7.92;42.75;97726.59;5009670;28;20016;-73
2022/02/28 08:26:17;;;;;;;;;;;;;;;7.99;42.62;97728.53;5008373;28;19971;-76
2022/02/28 08:28:43;;;;;;;;;;;;;;;8.10;41.59;97734.19;5006489;28;19960;-76
2022/02/28 08:31:09;;;;;;;;;;;;;;;8.13;41.36;97735.66;5000726;28;19961;-76
2022/02/28 08:33:35;;;;;;;;;;;;;;;8.25;42.34;97736.91;5007155;28;19968;-76
2022/02/28 08:36:01;;;;;;;;;;;;;;;8.35;42.17;97728.84;5007988;28;19954;-76
2022/02/28 08:38:27;;;;;;;;;;;;;;;8.39;42.36;97737.16;4986782;28;20014;-75
2022/02/28 08:40:52;;;;;;;;;;;;;;;8.42;41.13;97742.91;4988935;28;19954;-76
2022/02/28 08:43:18;;;;;;;;;;;;;;;8.40;40.82;97747.47;4987966;28;19984;-75
2022/02/28 08:45:44;;;;;;;;;;;;;;;8.44;41.98;97745.31;5005177;28;20015;-75
2022/02/28 08:48:10;;;;;;;;;;;;;;;8.50;40.31;97742.88;5000732;28;19964;-76
2022/02/28 08:50:36;;;;;;;;;;;;;;;8.59;42.03;97740.16;5011531;28;20417;-75
2022/02/28 08:53:02;;;;;;;;;;;;;;;8.78;42.22;97747.59;5003884;28;19970;-76
2022/02/28 08:55:28;;;;;;;;;;;;;;;8.85;40.88;97737.25;5001731;28;19953;-76
2022/02/28 08:57:54;;;;;;;;;;;;;;;8.86;41.23;97741.47;5005101;28;19952;-76
2022/02/28 09:00:20;;;;;;;;;;;;;;;8.88;38.77;97734.25;5005715;28;19956;-76
2022/02/28 09:02:46;;;;;;;;;;;;;;;8.82;40.33;97740.19;5007036;28;20341;-76
2022/02/28 09:05:11;;;;;;;;;;;;;;;8.74;39.89;97736.66;5007459;28;20322;-75
2022/02/28 09:07:37;;;;;;;;;;;;;;;8.74;41.20;97733.22;5005027;28;20402;-76
2022/02/28 09:10:04;;;;;;;;;;;;;;;8.54;39.79;97738.88;5002933;28;19961;-75
2022/02/28 09:12:30;;;;;;;;;;;;;;;8.25;40.37;97736.91;5003773;28;19978;-75
2022/02/28 09:14:55;;;;;;;;;;;;;;;7.96;41.15;97737.53;5004823;28;19965;-75
2022/02/28 09:17:21;;;;;;;;;;;;;;;7.84;41.94;97742.31;4988002;28;19960;-75
2022/02/28 09:19:47;;;;;;;;;;;;;;;7.64;42.02;97734.06;5004806;28;20454;-76
2022/02/28 09:22:13;;;;;;;;;;;;;;;7.58;42.66;97741.72;5003627;28;19951;-75
2022/02/28 09:24:39;;;;;;;;;;;;;;;7.39;42.17;97741.13;5001925;28;19957;-76
2022/02/28 09:27:07;;;;;;;;;;;;;;;7.27;42.53;97745.03;5005755;28;19968;-75
2022/02/28 09:29:33;;;;;;;;;;;;;;;7.34;43.86;97742.59;5003533;28;19953;-75
2022/02/28 09:31:59;;;;;;;;;;;;;;;7.43;43.19;97745.03;5007787;28;19958;-75
2022/02/28 09:34:25;;;;;;;;;;;;;;;7.53;43.61;97742.22;5006482;28;20131;-75
2022/02/28 09:36:51;;;;;;;;;;;;;;;7.62;42.50;97743.84;5005608;28;19954;-75
2022/02/28 09:39:18;;;;;;;;;;;;;;;7.65;43.47;97750.53;4999489;28;19958;-76
2022/02/28 09:41:44;;;;;;;;;;;;;;;7.63;42.79;97748.06;5007277;28;19951;-75
2022/02/28 09:44:13;;;;;;;;;;;;;;;7.70;41.51;97733.34;4998667;28;19988;-75
2022/02/28 09:46:39;;;;;;;;;;;;;;;7.56;42.87;97747.13;5010176;28;19959;-75
2022/02/28 09:49:05;;;;;;;;;;;;;;;7.52;43.21;97748.44;5003938;28;19959;-75
2022/02/28 09:51:34;;;;;;;;;;;;;;;7.59;42.40;97752.00;4997545;28;19950;-75
2022/02/28 09:54:00;;;;;;;;;;;;;;;7.68;42.63;97747.56;5005343;28;19977;-76
2022/02/28 09:56:26;;;;;;;;;;;;;;;7.79;42.30;97741.16;5008012;28;19952;-76
2022/02/28 09:58:52;;;;;;;;;;;;;;;7.82;41.94;97751.28;5003287;28;19951;-75
2022/02/28 10:01:18;;;;;;;;;;;;;;;7.89;42.22;97747.81;4998596;28;20367;-76
2022/02/28 10:03:44;;;;;;;;;;;;;;;8.00;41.47;97745.81;5005671;28;19958;-76
2022/02/28 10:06:10;;;;;;;;;;;;;;;8.05;41.66;97743.53;5007216;28;19977;-76
2022/02/28 10:08:47;;;;;;;;;;;;;;;7.89;42.41;97739.97;5004575;28;20421;-76
2022/02/28 10:11:27;;;;;;;;;;;;;;;7.69;41.70;97749.22;4993164;28;19952;-76
2022/02/28 10:13:54;;;;;;;;;;;;;;;7.57;42.25;97745.31;5002766;28;20323;-75
2022/02/28 10:16:30;;;;;;;;;;;;;;;7.59;42.39;97757.22;4983253;28;19966;-75
2022/02/28 10:18:56;;;;;;;;;;;;;;;7.65;42.39;97753.94;5005112;28;19978;-76
2022/02/28 10:21:41;;;;;;;;;;;;;;;7.67;42.24;97754.59;5002075;28;20405;-75
2022/02/28 10:24:11;;;;;;;;;;;;;;;7.83;42.82;97752.91;5002361;28;19959;-76
2022/02/28 10:26:45;;;;;;;;;;;;;;;7.90;40.97;97749.47;5008904;28;19949;-75
2022/02/28 10:29:12;;;;;;;;;;;;;;;7.98;40.79;97753.84;5008796;28;20415;-76
2022/02/28 10:31:39;;;;;;;;;;;;;;;8.02;41.13;97749.09;4991290;28;19953;-75
2022/02/28 10:34:15;;;;;;;;;;;;;;;8.06;39.71;97746.00;5005668;28;19962;-76
2022/02/28 10:36:45;;;;;;;;;;;;;;;8.05;39.46;97749.56;5004571;28;19961;-75
2022/02/28 10:39:11;;;;;;;;;;;;;;;8.07;40.05;97746.81;5009697;28;19952;-76
2022/02/28 10:41:38;;;;;;;;;;;;;;;8.23;40.13;97743.28;5007149;28;20324;-76
2022/02/28 10:44:05;;;;;;;;;;;;;;;8.30;38.79;97742.44;4980360;28;19984;-76
2022/02/28 10:46:33;;;;;;;;;;;;;;;8.27;37.05;97734.94;4997752;28;19957;-76
2022/02/28 10:49:09;;;;;;;;;;;;;;;8.23;37.74;97735.44;4997547;28;20448;-76
2022/02/28 10:51:45;;;;;;;;;;;;;;;8.30;36.73;97741.63;4997673;28;19957;-76
2022/02/28 10:54:14;;;;;;;;;;;;;;;8.33;37.50;97731.63;4996971;28;20444;-76
2022/02/28 10:56:44;;;;;;;;;;;;;;;8.33;39.64;97733.44;4997546;28;19953;-76
2022/02/28 10:59:10;;;;;;;;;;;;;;;8.31;38.33;97733.59;4997415;28;19957;-76
2022/02/28 11:01:42;;;;;;;;;;;;;;;8.21;37.43;97724.34;4997595;28;19958;-76
2022/02/28 11:04:08;;;;;;;;;;;;;;;8.30;37.67;97726.75;4997265;28;19955;-76
2022/02/28 11:06:35;;;;;;;;;;;;;;;8.51;38.41;97722.75;4997391;28;19955;-76
2022/02/28 11:09:01;;;;;;;;;;;;;;;8.70;37.08;97716.25;4997425;28;19966;-76
2022/02/28 11:11:27;;;;;;;;;;;;;;;8.72;37.26;97714.28;4997344;28;20444;-77
2022/02/28 11:13:53;;;;;;;;;;;;;;;8.80;36.82;97709.00;4997860;28;19972;-76
2022/02/28 11:16:20;;;;;;;;;;;;;;;8.96;34.82;97718.50;4997257;28;19958;-76
2022/02/28 11:18:46;;;;;;;;;;;;;;;9.01;35.32;97710.94;4979635;28;19957;-76
2022/02/28 11:21:14;;;;;;;;;;;;;;;9.10;35.94;97707.25;4997087;28;19953;-76
2022/02/28 11:23:41;;;;;;;;;;;;;;;9.26;35.06;97702.84;4997055;28;19979;-76
2022/02/28 11:26:07;;;;;;;;;;;;;;;9.17;33.73;97696.88;4997122;28;19956;-77
2022/02/28 11:28:33;;;;;;;;;;;;;;;9.31;34.05;97706.56;4996815;28;19962;-76
2022/02/28 11:31:03;;;;;;;;;;;;;;;9.39;35.01;97699.66;4997462;28;19953;-76
2022/02/28 11:33:29;;;;;;;;;;;;;;;9.57;33.89;97694.84;4996882;28;19985;-76
2022/02/28 11:35:55;;;;;;;;;;;;;;;9.67;34.70;97684.13;4996781;28;20336;-76
2022/02/28 11:38:23;;;;;;;;;;;;;;;9.73;34.12;97686.00;4996810;28;19966;-76
2022/02/28 11:40:52;;;;;;;;;;;;;;;9.85;33.85;97686.34;4996154;28;19949;-76
2022/02/28 11:43:23;;;;;;;;;;;;;;;9.92;31.93;97684.63;4999889;28;20335;-76
2022/02/28 11:45:52;;;;;;;;;;;;;;;9.90;33.48;97681.38;5005979;28;19958;-77
2022/02/28 11:48:18;;;;;;;;;;;;;;;9.92;33.88;97682.81;5009275;28;19956;-76
2022/02/28 11:51:03;;;;;;;;;;;;;;;9.82;34.78;97679.66;5005775;28;19952;-76
2022/02/28 11:53:38;;;;;;;;;;;;;;;9.84;32.52;97669.81;4999999;28;19969;-77
2022/02/28 11:56:16;;;;;;;;;;;;;;;9.99;33.68;97671.59;5004637;28;20329;-77
2022/02/28 11:58:55;;;;;;;;;;;;;;;10.17;33.46;97674.66;4999455;28;19949;-76
2022/02/28 12:01:35;;;;;;;;;;;;;;;10.20;32.51;97669.03;5011776;28;20027;-76
2022/02/28 12:04:07;;;;;;;;;;;;;;;10.14;31.40;97662.72;5006554;28;19956;-76
2022/02/28 12:06:48;;;;;;;;;;;;;;;10.30;31.43;97666.16;5006973;28;19953;-77
2022/02/28 12:09:32;;;;;;;;;;;;;;;10.23;30.39;97660.81;5008755;28;19981;-77
2022/02/28 12:12:17;;;;;;;;;;;;;;;10.14;30.81;97660.09;5003129;28;19951;-77
2022/02/28 12:15:04;;;;;;;;;;;;;;;10.22;32.47;97660.97;5004936;28;19980;-76
2022/02/28 12:17:34;;;;;;;;;;;;;;;10.16;31.71;97657.28;5005070;28;19957;-76
2022/02/28 12:20:19;;;;;;;;;;;;;;;9.98;32.63;97647.22;5001568;28;19949;-76
2022/02/28 12:22:51;;;;;;;;;;;;;;;9.78;35.08;97654.81;4996658;28;19953;-76
2022/02/28 12:25:34;;;;;;;;;;;;;;;9.78;33.47;97646.16;5005756;28;19949;-76
2022/02/28 12:28:15;;;;;;;;;;;;;;;9.94;30.94;97644.16;4986605;28;19951;-76
2022/02/28 12:30:45;;;;;;;;;;;;;;;10.02;32.19;97643.22;5005691;28;19959;-76
2022/02/28 12:33:14;;;;;;;;;;;;;;;9.93;31.52;97634.69;5009106;28;19969;-77
2022/02/28 12:36:00;;;;;;;;;;;;;;;9.90;31.40;97637.66;5005840;28;19948;-77
2022/02/28 12:38:34;;;;;;;;;;;;;;;9.97;31.45;97637.72;5005641;28;19958;-76
2022/02/28 12:41:01;;;;;;;;;;;;;;;10.10;30.97;97637.06;5005724;28;19952;-76
2022/02/28 12:43:27;;;;;;;;;;;;;;;10.10;31.00;97635.25;4984069;28;19990;-76
2022/02/28 12:45:55;;;;;;;;;;;;;;;10.08;31.19;97637.25;4996610;28;19958;-77
2022/02/28 12:48:22;;;;;;;;;;;;;;;10.16;31.96;97631.06;4995410;28;19958;-77
2022/02/28 12:50:48;;;;;;;;;;;;;;;10.37;31.71;97635.53;4995727;28;19977;-77